Monroe, WA (98272)

4:47 PM PDT on September 01, 2014 (GMT -0700)
Wagner | Change Station
CLOSE
Current Station
Personal Weather Station
Location: Monroe, WA
Elevation: 289 ft
Nearby Weather Stations

Elev 289 ft 47.88 °N, 121.93 °W | Updated 15 seconds ago

Clear
Clear
75.3 °F
Feels Like 78 °F
N
1.0
Wind Variable Wind from SSW
Gusts 4.0 mph

Today
High -- | Low -- °F
--% Chance of Precip.
Yesterday
High -- | Low -- °F
Precip. -- in
6:26 AM 7:48 PM
Waxing Crescent, 45% visible
Pressure 30.05 in
Visibility 10.0 miles
Clouds Clear
Heat Index 78 °F
Dew Point 56 °F
Humidity 52%
Rainfall 0.00 in
Snow Depth Not available.
UV 5 out of 12
Pollen 3.10 out of 12
PM2.5 Good
Flu Activity Not available.
METAR KPAE 012253Z 26007KT 10SM CLR 21/10 A3005 RMK AO2 SLP174 T02060100

More Conditions Fewer Conditions

Pressure 30.05 in
Visibility 10.0 miles
Clouds Clear
Heat Index 78 °F
Dew Point 56 °F
Humidity 52%
Rainfall 0.00 in
Snow Depth Not available.
UV 5 out of 12
Pollen 3.10 out of 12
PM2.5 Good
Flu Activity Not available.
METAR KPAE 012253Z 26007KT 10SM CLR 21/10 A3005 RMK AO2 SLP174 T02060100

More Conditions Fewer Conditions

10-Day Weather Forecast

Almanac

Astronomy

Sep. 01, 2014 Rise Set
Actual Time 6:26 AM PDT 7:48 PM PDT
Civil Twilight 5:53 AM PDT 8:20 PM PDT
Nautical Twilight 5:15 AM PDT 8:59 PM PDT
Astronomical Twilight 4:33 AM PDT 9:40 PM PDT
Moon 1:47 PM PDT 11:23 PM PDT
Length of Visible Light 14h 26m
Length of Day
13h 22m
Tomorrow will be 3m 20s shorter.
Waxing Crescent, 45% of the Moon is Illuminated
Today
Waxing Crescent
Sep 2
First Quarter
Sep 8
Full
Sep 15
Last Quarter
Sep 24
New

Today's Extremes

State Highs State Lows

Community

WunderPhotos

Upload Photos

1,749,440 photos uploaded!

Nearby

Air Quality

  Air Quality AQ Index Pollutant
Yesterday Good
PM2.5
Yesterday Good
OZONE
Current Good
PM2.5
Monday Good
OZONE
Monday Good
PM2.5
Tuesday Good
OZONE
Tuesday Good
PM2.5
Wednesday Good
OZONE
Wednesday Good
PM2.5

Snow Depth

Station Depth Elevation
Meadows Pass 0 in 3500 ft
Stampede Pass 1 in 3860 ft
Dungeness 0 in 4100 ft
Sasse Ridge 0 in 4200 ft
Park Creek Ridge 0 in 4600 ft

Earthquake Activity

City Distance Mag. Time & Date
No recent earthquake activity has been reported nearby.
Minimum magnitude displayed is 2.5.

Coastal Water Temperatures

Place Temperature
Port Townsend, WA 55.0 °F
Seattle, WA 55.9 °F
Friday Harbor, WA 53.1 °F
Tacoma, WA 55.0 °F

Nearby Weather Stations